Midway, Louisiana
Current Conditions -  °F | °C
As of 5:53 PM on Monday 22 Dec 2014 (Local Time) from KAEX Reporting Station
Overcast Overcast  
Wind Chill: 66°   Ceiling: 3100
Heat Index: 66°   Visibility: 10mi
Dew Point: 61°   Wind: 5mph
Humidity: 84%   Direction: 170°S
Pressure: 29.6"   Gusts: NA
Location:  31.0356°N, 92.5053°W
Report Text: KAEX 222353Z 17004KT 10SM OVC031 19/16 A2960 RMK AO2 SLP028 T01890161 10211 20156 53000
Loading
Personal Weather Stations






























Interactive Weather Map New forecast layout! Learn more

10-Day Weather Forecast

Advertisements
Track Severe Weather on mobile